sensor_id;sensor_type;location;lat;lon;timestamp;P1;durP1;ratioP1;P2;durP2;ratioP2
28166;SDS011;15455;53.376;-6.262;2023-05-16T00:00:33;2.22;;;1.15;;
28166;SDS011;15455;53.376;-6.262;2023-05-16T00:03:19;6.43;;;1.00;;
28166;SDS011;15455;53.376;-6.262;2023-05-16T00:06:05;5.72;;;1.15;;
28166;SDS011;15455;53.376;-6.262;2023-05-16T00:08:51;3.38;;;0.77;;
28166;SDS011;15455;53.376;-6.262;2023-05-16T00:11:36;2.75;;;0.82;;
28166;SDS011;15455;53.376;-6.262;2023-05-16T00:14:22;6.70;;;0.93;;
28166;SDS011;15455;53.376;-6.262;2023-05-16T00:17:10;3.95;;;0.77;;
28166;SDS011;15455;53.376;-6.262;2023-05-16T00:19:56;4.30;;;1.25;;
28166;SDS011;15455;53.376;-6.262;2023-05-16T00:22:44;4.15;;;1.10;;
28166;SDS011;15455;53.376;-6.262;2023-05-16T00:25:30;3.45;;;1.00;;
28166;SDS011;15455;53.376;-6.262;2023-05-16T00:28:15;4.32;;;0.93;;
28166;SDS011;15455;53.376;-6.262;2023-05-16T00:31:01;5.30;;;0.90;;
28166;SDS011;15455;53.376;-6.262;2023-05-16T00:33:46;5.40;;;1.20;;
28166;SDS011;15455;53.376;-6.262;2023-05-16T00:36:32;8.10;;;0.90;;
28166;SDS011;15455;53.376;-6.262;2023-05-16T00:39:19;5.88;;;2.05;;
28166;SDS011;15455;53.376;-6.262;2023-05-16T00:42:05;6.13;;;1.17;;
28166;SDS011;15455;53.376;-6.262;2023-05-16T00:44:50;5.40;;;0.95;;
28166;SDS011;15455;53.376;-6.262;2023-05-16T00:47:36;3.95;;;0.88;;
28166;SDS011;15455;53.376;-6.262;2023-05-16T00:50:22;5.15;;;1.05;;
28166;SDS011;15455;53.376;-6.262;2023-05-16T00:53:08;2.58;;;1.45;;
28166;SDS011;15455;53.376;-6.262;2023-05-16T00:55:55;6.25;;;0.80;;
28166;SDS011;15455;53.376;-6.262;2023-05-16T00:58:40;5.78;;;0.95;;
28166;SDS011;15455;53.376;-6.262;2023-05-16T01:01:26;2.22;;;0.88;;
28166;SDS011;15455;53.376;-6.262;2023-05-16T01:04:12;4.85;;;1.17;;
28166;SDS011;15455;53.376;-6.262;2023-05-16T01:06:58;4.47;;;1.10;;
28166;SDS011;15455;53.376;-6.262;2023-05-16T01:09:45;3.45;;;0.98;;
28166;SDS011;15455;53.376;-6.262;2023-05-16T01:12:40;2.13;;;0.93;;
28166;SDS011;15455;53.376;-6.262;2023-05-16T01:15:48;4.47;;;0.73;;
28166;SDS011;15455;53.376;-6.262;2023-05-16T01:21:56;3.80;;;1.13;;
28166;SDS011;15455;53.376;-6.262;2023-05-16T01:27:54;6.97;;;1.00;;
28166;SDS011;15455;53.376;-6.262;2023-05-16T01:30:42;4.50;;;1.20;;
28166;SDS011;15455;53.376;-6.262;2023-05-16T01:33:30;5.40;;;0.90;;
28166;SDS011;15455;53.376;-6.262;2023-05-16T01:36:18;4.05;;;1.17;;
28166;SDS011;15455;53.376;-6.262;2023-05-16T01:42:11;3.85;;;0.70;;
28166;SDS011;15455;53.376;-6.262;2023-05-16T01:45:09;5.38;;;1.08;;
28166;SDS011;15455;53.376;-6.262;2023-05-16T01:48:06;5.07;;;1.40;;
28166;SDS011;15455;53.376;-6.262;2023-05-16T01:50:55;3.50;;;1.20;;
28166;SDS011;15455;53.376;-6.262;2023-05-16T01:53:41;4.57;;;1.10;;
28166;SDS011;15455;53.376;-6.262;2023-05-16T01:56:29;2.15;;;0.93;;
28166;SDS011;15455;53.376;-6.262;2023-05-16T01:59:17;2.55;;;1.13;;
28166;SDS011;15455;53.376;-6.262;2023-05-16T02:02:05;1.38;;;0.98;;
28166;SDS011;15455;53.376;-6.262;2023-05-16T02:04:51;4.57;;;1.40;;
28166;SDS011;15455;53.376;-6.262;2023-05-16T02:07:36;6.15;;;1.35;;
28166;SDS011;15455;53.376;-6.262;2023-05-16T02:10:22;7.07;;;1.35;;
28166;SDS011;15455;53.376;-6.262;2023-05-16T02:13:08;1.20;;;1.02;;
28166;SDS011;15455;53.376;-6.262;2023-05-16T02:15:53;7.00;;;1.38;;
28166;SDS011;15455;53.376;-6.262;2023-05-16T02:18:39;1.70;;;1.02;;
28166;SDS011;15455;53.376;-6.262;2023-05-16T02:21:25;4.00;;;1.20;;
28166;SDS011;15455;53.376;-6.262;2023-05-16T02:24:11;6.53;;;1.08;;
28166;SDS011;15455;53.376;-6.262;2023-05-16T02:26:56;6.65;;;1.50;;
28166;SDS011;15455;53.376;-6.262;2023-05-16T02:29:42;1.55;;;1.13;;
28166;SDS011;15455;53.376;-6.262;2023-05-16T02:32:27;2.60;;;1.20;;
28166;SDS011;15455;53.376;-6.262;2023-05-16T02:35:13;7.32;;;1.50;;
28166;SDS011;15455;53.376;-6.262;2023-05-16T02:37:58;7.07;;;1.75;;
28166;SDS011;15455;53.376;-6.262;2023-05-16T02:40:44;5.60;;;1.30;;
28166;SDS011;15455;53.376;-6.262;2023-05-16T02:43:30;5.68;;;1.55;;
28166;SDS011;15455;53.376;-6.262;2023-05-16T02:46:26;4.47;;;1.30;;
28166;SDS011;15455;53.376;-6.262;2023-05-16T02:49:15;2.85;;;1.05;;
28166;SDS011;15455;53.376;-6.262;2023-05-16T02:52:01;2.30;;;1.20;;
28166;SDS011;15455;53.376;-6.262;2023-05-16T02:54:47;10.30;;;2.03;;
28166;SDS011;15455;53.376;-6.262;2023-05-16T02:57:53;2.17;;;1.20;;
28166;SDS011;15455;53.376;-6.262;2023-05-16T03:00:39;5.05;;;1.67;;
28166;SDS011;15455;53.376;-6.262;2023-05-16T03:03:26;13.93;;;2.03;;
28166;SDS011;15455;53.376;-6.262;2023-05-16T03:06:11;3.03;;;1.38;;
28166;SDS011;15455;53.376;-6.262;2023-05-16T03:08:57;10.93;;;2.55;;
28166;SDS011;15455;53.376;-6.262;2023-05-16T03:11:43;4.43;;;1.30;;
28166;SDS011;15455;53.376;-6.262;2023-05-16T03:14:29;4.53;;;1.58;;
28166;SDS011;15455;53.376;-6.262;2023-05-16T03:17:14;6.93;;;1.35;;
28166;SDS011;15455;53.376;-6.262;2023-05-16T03:20:00;11.68;;;1.58;;
28166;SDS011;15455;53.376;-6.262;2023-05-16T03:22:45;5.68;;;1.83;;
28166;SDS011;15455;53.376;-6.262;2023-05-16T03:25:31;7.00;;;1.45;;
28166;SDS011;15455;53.376;-6.262;2023-05-16T03:28:16;5.85;;;1.13;;
28166;SDS011;15455;53.376;-6.262;2023-05-16T03:31:02;4.05;;;1.20;;
28166;SDS011;15455;53.376;-6.262;2023-05-16T03:33:47;4.97;;;1.92;;
28166;SDS011;15455;53.376;-6.262;2023-05-16T03:36:33;6.82;;;1.85;;
28166;SDS011;15455;53.376;-6.262;2023-05-16T03:39:20;2.83;;;1.88;;
28166;SDS011;15455;53.376;-6.262;2023-05-16T03:42:05;4.55;;;1.17;;
28166;SDS011;15455;53.376;-6.262;2023-05-16T03:44:51;2.38;;;1.30;;
28166;SDS011;15455;53.376;-6.262;2023-05-16T03:47:37;6.78;;;1.35;;
28166;SDS011;15455;53.376;-6.262;2023-05-16T03:50:22;5.13;;;1.02;;
28166;SDS011;15455;53.376;-6.262;2023-05-16T03:53:08;5.55;;;1.30;;
28166;SDS011;15455;53.376;-6.262;2023-05-16T03:55:53;2.05;;;1.08;;
28166;SDS011;15455;53.376;-6.262;2023-05-16T03:58:39;6.75;;;1.88;;
28166;SDS011;15455;53.376;-6.262;2023-05-16T04:01:25;2.17;;;0.93;;
28166;SDS011;15455;53.376;-6.262;2023-05-16T04:04:10;4.60;;;1.60;;
28166;SDS011;15455;53.376;-6.262;2023-05-16T04:06:56;6.90;;;1.35;;
28166;SDS011;15455;53.376;-6.262;2023-05-16T04:09:42;5.53;;;1.63;;
28166;SDS011;15455;53.376;-6.262;2023-05-16T04:12:27;4.22;;;1.27;;
28166;SDS011;15455;53.376;-6.262;2023-05-16T04:15:13;5.20;;;1.30;;
28166;SDS011;15455;53.376;-6.262;2023-05-16T04:17:58;5.25;;;1.77;;
28166;SDS011;15455;53.376;-6.262;2023-05-16T04:20:44;6.53;;;1.95;;
28166;SDS011;15455;53.376;-6.262;2023-05-16T04:23:31;3.67;;;1.23;;
28166;SDS011;15455;53.376;-6.262;2023-05-16T04:26:17;9.40;;;1.65;;
28166;SDS011;15455;53.376;-6.262;2023-05-16T04:29:02;10.18;;;2.17;;
28166;SDS011;15455;53.376;-6.262;2023-05-16T04:31:48;6.93;;;1.20;;
28166;SDS011;15455;53.376;-6.262;2023-05-16T04:34:34;3.92;;;1.40;;
28166;SDS011;15455;53.376;-6.262;2023-05-16T04:37:24;6.28;;;1.10;;
28166;SDS011;15455;53.376;-6.262;2023-05-16T04:40:09;2.38;;;1.48;;
28166;SDS011;15455;53.376;-6.262;2023-05-16T04:42:56;7.05;;;1.40;;
28166;SDS011;15455;53.376;-6.262;2023-05-16T04:45:42;1.73;;;1.08;;
28166;SDS011;15455;53.376;-6.262;2023-05-16T04:48:27;3.63;;;1.63;;
28166;SDS011;15455;53.376;-6.262;2023-05-16T04:51:12;5.07;;;1.08;;
28166;SDS011;15455;53.376;-6.262;2023-05-16T04:53:59;3.70;;;1.25;;
28166;SDS011;15455;53.376;-6.262;2023-05-16T04:56:45;2.38;;;1.90;;
28166;SDS011;15455;53.376;-6.262;2023-05-16T04:59:30;2.08;;;1.27;;
28166;SDS011;15455;53.376;-6.262;2023-05-16T05:02:16;6.03;;;1.40;;
28166;SDS011;15455;53.376;-6.262;2023-05-16T05:05:01;11.25;;;1.65;;
28166;SDS011;15455;53.376;-6.262;2023-05-16T05:07:47;2.85;;;1.08;;
28166;SDS011;15455;53.376;-6.262;2023-05-16T05:10:33;5.80;;;1.50;;
28166;SDS011;15455;53.376;-6.262;2023-05-16T05:13:18;5.25;;;1.48;;
28166;SDS011;15455;53.376;-6.262;2023-05-16T05:16:04;5.45;;;1.45;;
28166;SDS011;15455;53.376;-6.262;2023-05-16T05:18:50;7.45;;;1.60;;
28166;SDS011;15455;53.376;-6.262;2023-05-16T05:21:36;2.58;;;1.52;;
28166;SDS011;15455;53.376;-6.262;2023-05-16T05:24:21;6.63;;;1.65;;
28166;SDS011;15455;53.376;-6.262;2023-05-16T05:27:07;6.90;;;2.05;;
28166;SDS011;15455;53.376;-6.262;2023-05-16T05:29:52;2.88;;;1.25;;
28166;SDS011;15455;53.376;-6.262;2023-05-16T05:32:37;5.05;;;1.50;;
28166;SDS011;15455;53.376;-6.262;2023-05-16T05:35:23;4.68;;;1.38;;
28166;SDS011;15455;53.376;-6.262;2023-05-16T05:38:08;5.05;;;1.58;;
28166;SDS011;15455;53.376;-6.262;2023-05-16T05:40:54;6.45;;;1.38;;
28166;SDS011;15455;53.376;-6.262;2023-05-16T05:43:39;7.22;;;1.73;;
28166;SDS011;15455;53.376;-6.262;2023-05-16T05:46:25;5.13;;;2.00;;
28166;SDS011;15455;53.376;-6.262;2023-05-16T05:49:11;4.97;;;1.30;;
28166;SDS011;15455;53.376;-6.262;2023-05-16T05:51:56;4.22;;;1.48;;
28166;SDS011;15455;53.376;-6.262;2023-05-16T05:54:42;3.72;;;1.38;;
28166;SDS011;15455;53.376;-6.262;2023-05-16T05:57:28;6.38;;;1.65;;
28166;SDS011;15455;53.376;-6.262;2023-05-16T06:00:13;3.40;;;1.50;;
28166;SDS011;15455;53.376;-6.262;2023-05-16T06:02:59;8.95;;;1.88;;
28166;SDS011;15455;53.376;-6.262;2023-05-16T06:05:45;6.75;;;2.30;;
28166;SDS011;15455;53.376;-6.262;2023-05-16T06:08:30;8.43;;;1.88;;
28166;SDS011;15455;53.376;-6.262;2023-05-16T06:11:15;4.15;;;1.83;;
28166;SDS011;15455;53.376;-6.262;2023-05-16T06:14:01;3.25;;;1.52;;
28166;SDS011;15455;53.376;-6.262;2023-05-16T06:16:46;4.32;;;1.30;;
28166;SDS011;15455;53.376;-6.262;2023-05-16T06:19:32;4.18;;;1.83;;
28166;SDS011;15455;53.376;-6.262;2023-05-16T06:22:17;4.50;;;1.83;;
28166;SDS011;15455;53.376;-6.262;2023-05-16T06:25:03;7.90;;;1.83;;
28166;SDS011;15455;53.376;-6.262;2023-05-16T06:27:49;3.50;;;1.70;;
28166;SDS011;15455;53.376;-6.262;2023-05-16T06:30:34;11.20;;;1.60;;
28166;SDS011;15455;53.376;-6.262;2023-05-16T06:33:20;10.23;;;2.33;;
28166;SDS011;15455;53.376;-6.262;2023-05-16T06:36:05;7.18;;;2.30;;
28166;SDS011;15455;53.376;-6.262;2023-05-16T06:38:51;2.38;;;1.30;;
28166;SDS011;15455;53.376;-6.262;2023-05-16T06:41:37;4.43;;;1.90;;
28166;SDS011;15455;53.376;-6.262;2023-05-16T06:44:23;6.35;;;1.92;;
28166;SDS011;15455;53.376;-6.262;2023-05-16T06:47:08;4.18;;;1.63;;
28166;SDS011;15455;53.376;-6.262;2023-05-16T06:49:54;5.25;;;1.42;;
28166;SDS011;15455;53.376;-6.262;2023-05-16T06:52:39;11.65;;;1.98;;
28166;SDS011;15455;53.376;-6.262;2023-05-16T06:55:26;5.15;;;2.03;;
28166;SDS011;15455;53.376;-6.262;2023-05-16T06:58:12;7.50;;;2.30;;
28166;SDS011;15455;53.376;-6.262;2023-05-16T07:00:58;16.52;;;3.25;;
28166;SDS011;15455;53.376;-6.262;2023-05-16T07:03:43;11.35;;;2.25;;
28166;SDS011;15455;53.376;-6.262;2023-05-16T07:06:29;9.00;;;1.80;;
28166;SDS011;15455;53.376;-6.262;2023-05-16T07:09:15;9.77;;;2.38;;
28166;SDS011;15455;53.376;-6.262;2023-05-16T07:12:00;9.65;;;2.60;;
28166;SDS011;15455;53.376;-6.262;2023-05-16T07:14:46;8.30;;;2.50;;
28166;SDS011;15455;53.376;-6.262;2023-05-16T07:17:31;11.02;;;2.80;;
28166;SDS011;15455;53.376;-6.262;2023-05-16T07:20:17;8.25;;;2.75;;
28166;SDS011;15455;53.376;-6.262;2023-05-16T07:23:02;6.35;;;2.00;;
28166;SDS011;15455;53.376;-6.262;2023-05-16T07:25:48;7.72;;;2.25;;
28166;SDS011;15455;53.376;-6.262;2023-05-16T07:28:33;11.30;;;2.67;;
28166;SDS011;15455;53.376;-6.262;2023-05-16T07:31:21;10.52;;;2.70;;
28166;SDS011;15455;53.376;-6.262;2023-05-16T07:34:08;9.80;;;2.55;;
28166;SDS011;15455;53.376;-6.262;2023-05-16T07:36:55;8.18;;;2.75;;
28166;SDS011;15455;53.376;-6.262;2023-05-16T07:39:41;10.15;;;2.38;;
28166;SDS011;15455;53.376;-6.262;2023-05-16T07:42:27;10.48;;;2.40;;
28166;SDS011;15455;53.376;-6.262;2023-05-16T07:45:12;7.45;;;2.00;;
28166;SDS011;15455;53.376;-6.262;2023-05-16T07:47:57;8.82;;;2.42;;
28166;SDS011;15455;53.376;-6.262;2023-05-16T07:50:44;14.70;;;3.38;;
28166;SDS011;15455;53.376;-6.262;2023-05-16T07:53:29;9.05;;;2.65;;
28166;SDS011;15455;53.376;-6.262;2023-05-16T07:56:15;7.80;;;2.38;;
28166;SDS011;15455;53.376;-6.262;2023-05-16T07:59:01;10.50;;;2.85;;
28166;SDS011;15455;53.376;-6.262;2023-05-16T08:01:47;12.45;;;3.15;;
28166;SDS011;15455;53.376;-6.262;2023-05-16T08:04:32;13.48;;;3.85;;
28166;SDS011;15455;53.376;-6.262;2023-05-16T08:07:17;8.43;;;2.80;;
28166;SDS011;15455;53.376;-6.262;2023-05-16T08:10:03;12.82;;;3.22;;
28166;SDS011;15455;53.376;-6.262;2023-05-16T08:12:49;12.15;;;3.35;;
28166;SDS011;15455;53.376;-6.262;2023-05-16T08:15:35;18.92;;;3.55;;
28166;SDS011;15455;53.376;-6.262;2023-05-16T08:18:20;19.55;;;3.42;;
28166;SDS011;15455;53.376;-6.262;2023-05-16T08:21:07;21.35;;;3.58;;
28166;SDS011;15455;53.376;-6.262;2023-05-16T08:23:56;15.48;;;2.80;;
28166;SDS011;15455;53.376;-6.262;2023-05-16T08:26:41;16.23;;;3.70;;
28166;SDS011;15455;53.376;-6.262;2023-05-16T08:29:27;18.23;;;3.85;;
28166;SDS011;15455;53.376;-6.262;2023-05-16T08:32:12;14.98;;;3.45;;
28166;SDS011;15455;53.376;-6.262;2023-05-16T08:34:58;13.07;;;3.45;;
28166;SDS011;15455;53.376;-6.262;2023-05-16T08:37:44;13.70;;;3.22;;
28166;SDS011;15455;53.376;-6.262;2023-05-16T08:40:29;6.75;;;2.75;;
28166;SDS011;15455;53.376;-6.262;2023-05-16T08:43:15;14.27;;;3.45;;
28166;SDS011;15455;53.376;-6.262;2023-05-16T08:46:01;17.00;;;4.20;;
28166;SDS011;15455;53.376;-6.262;2023-05-16T08:48:46;21.23;;;4.38;;
28166;SDS011;15455;53.376;-6.262;2023-05-16T08:51:36;16.13;;;3.50;;
28166;SDS011;15455;53.376;-6.262;2023-05-16T08:54:22;16.67;;;3.42;;
28166;SDS011;15455;53.376;-6.262;2023-05-16T08:57:12;11.68;;;3.47;;
28166;SDS011;15455;53.376;-6.262;2023-05-16T08:59:58;13.45;;;3.75;;
28166;SDS011;15455;53.376;-6.262;2023-05-16T09:02:44;16.13;;;3.25;;
28166;SDS011;15455;53.376;-6.262;2023-05-16T09:05:30;15.30;;;2.85;;
28166;SDS011;15455;53.376;-6.262;2023-05-16T09:08:17;15.90;;;3.17;;
28166;SDS011;15455;53.376;-6.262;2023-05-16T09:11:02;11.85;;;2.78;;
28166;SDS011;15455;53.376;-6.262;2023-05-16T09:13:48;19.65;;;3.28;;
28166;SDS011;15455;53.376;-6.262;2023-05-16T09:16:34;18.95;;;3.33;;
28166;SDS011;15455;53.376;-6.262;2023-05-16T09:19:19;19.13;;;3.22;;
28166;SDS011;15455;53.376;-6.262;2023-05-16T09:22:08;13.05;;;3.03;;
28166;SDS011;15455;53.376;-6.262;2023-05-16T09:24:55;15.57;;;3.58;;
28166;SDS011;15455;53.376;-6.262;2023-05-16T09:27:47;18.00;;;3.80;;
28166;SDS011;15455;53.376;-6.262;2023-05-16T09:30:36;21.10;;;3.10;;
28166;SDS011;15455;53.376;-6.262;2023-05-16T09:33:25;8.82;;;2.78;;
28166;SDS011;15455;53.376;-6.262;2023-05-16T09:36:12;8.73;;;2.88;;
28166;SDS011;15455;53.376;-6.262;2023-05-16T09:38:59;13.85;;;2.78;;
28166;SDS011;15455;53.376;-6.262;2023-05-16T09:41:45;14.65;;;3.33;;
28166;SDS011;15455;53.376;-6.262;2023-05-16T09:44:36;10.70;;;2.80;;
28166;SDS011;15455;53.376;-6.262;2023-05-16T09:47:22;15.02;;;2.80;;
28166;SDS011;15455;53.376;-6.262;2023-05-16T09:50:08;16.42;;;3.60;;
28166;SDS011;15455;53.376;-6.262;2023-05-16T09:52:53;10.05;;;2.80;;
28166;SDS011;15455;53.376;-6.262;2023-05-16T09:55:40;14.65;;;2.70;;
28166;SDS011;15455;53.376;-6.262;2023-05-16T09:58:35;11.48;;;2.83;;
28166;SDS011;15455;53.376;-6.262;2023-05-16T10:01:22;16.98;;;3.65;;
28166;SDS011;15455;53.376;-6.262;2023-05-16T10:04:09;12.02;;;3.92;;
28166;SDS011;15455;53.376;-6.262;2023-05-16T10:06:58;8.68;;;2.60;;
28166;SDS011;15455;53.376;-6.262;2023-05-16T10:09:49;14.60;;;2.63;;
28166;SDS011;15455;53.376;-6.262;2023-05-16T10:12:36;14.93;;;3.10;;
28166;SDS011;15455;53.376;-6.262;2023-05-16T10:15:23;13.15;;;3.42;;
28166;SDS011;15455;53.376;-6.262;2023-05-16T10:18:09;13.30;;;3.30;;
28166;SDS011;15455;53.376;-6.262;2023-05-16T10:21:03;16.50;;;2.83;;
28166;SDS011;15455;53.376;-6.262;2023-05-16T10:23:57;14.68;;;2.83;;
28166;SDS011;15455;53.376;-6.262;2023-05-16T10:26:47;22.58;;;3.67;;
28166;SDS011;15455;53.376;-6.262;2023-05-16T10:29:33;18.90;;;3.38;;
28166;SDS011;15455;53.376;-6.262;2023-05-16T10:32:37;13.30;;;2.75;;
28166;SDS011;15455;53.376;-6.262;2023-05-16T10:35:27;16.30;;;3.72;;
28166;SDS011;15455;53.376;-6.262;2023-05-16T10:38:17;15.77;;;2.83;;
28166;SDS011;15455;53.376;-6.262;2023-05-16T10:41:04;6.32;;;2.35;;
28166;SDS011;15455;53.376;-6.262;2023-05-16T10:43:57;15.85;;;3.63;;
28166;SDS011;15455;53.376;-6.262;2023-05-16T10:46:45;11.60;;;2.78;;
28166;SDS011;15455;53.376;-6.262;2023-05-16T10:49:31;12.30;;;2.65;;
28166;SDS011;15455;53.376;-6.262;2023-05-16T10:52:17;8.48;;;2.90;;
28166;SDS011;15455;53.376;-6.262;2023-05-16T10:55:02;9.50;;;3.08;;
28166;SDS011;15455;53.376;-6.262;2023-05-16T10:57:51;22.50;;;3.33;;
28166;SDS011;15455;53.376;-6.262;2023-05-16T11:00:37;17.67;;;3.33;;
28166;SDS011;15455;53.376;-6.262;2023-05-16T11:03:24;8.57;;;2.58;;
28166;SDS011;15455;53.376;-6.262;2023-05-16T11:06:12;11.82;;;3.33;;
28166;SDS011;15455;53.376;-6.262;2023-05-16T11:14:38;10.18;;;3.22;;
28166;SDS011;15455;53.376;-6.262;2023-05-16T11:17:37;11.52;;;2.88;;
28166;SDS011;15455;53.376;-6.262;2023-05-16T11:20:28;14.60;;;3.13;;
28166;SDS011;15455;53.376;-6.262;2023-05-16T11:26:01;8.65;;;3.35;;
28166;SDS011;15455;53.376;-6.262;2023-05-16T11:28:50;14.20;;;3.10;;
28166;SDS011;15455;53.376;-6.262;2023-05-16T11:31:36;9.32;;;2.92;;
28166;SDS011;15455;53.376;-6.262;2023-05-16T11:34:22;8.32;;;3.03;;
28166;SDS011;15455;53.376;-6.262;2023-05-16T11:37:09;20.58;;;4.13;;
28166;SDS011;15455;53.376;-6.262;2023-05-16T11:39:59;9.05;;;2.85;;
28166;SDS011;15455;53.376;-6.262;2023-05-16T11:42:46;11.15;;;3.58;;
28166;SDS011;15455;53.376;-6.262;2023-05-16T11:45:32;16.98;;;3.97;;
28166;SDS011;15455;53.376;-6.262;2023-05-16T11:48:18;9.90;;;2.83;;
28166;SDS011;15455;53.376;-6.262;2023-05-16T11:51:19;12.10;;;3.78;;
28166;SDS011;15455;53.376;-6.262;2023-05-16T11:54:05;10.75;;;3.10;;
28166;SDS011;15455;53.376;-6.262;2023-05-16T11:56:53;16.27;;;3.50;;
28166;SDS011;15455;53.376;-6.262;2023-05-16T11:59:39;12.80;;;3.28;;
28166;SDS011;15455;53.376;-6.262;2023-05-16T12:02:27;9.20;;;3.15;;
28166;SDS011;15455;53.376;-6.262;2023-05-16T12:05:14;9.77;;;3.25;;
28166;SDS011;15455;53.376;-6.262;2023-05-16T12:08:01;16.10;;;3.58;;
28166;SDS011;15455;53.376;-6.262;2023-05-16T12:10:52;13.00;;;3.03;;
28166;SDS011;15455;53.376;-6.262;2023-05-16T12:13:40;9.60;;;2.72;;
28166;SDS011;15455;53.376;-6.262;2023-05-16T12:16:25;13.90;;;3.60;;
28166;SDS011;15455;53.376;-6.262;2023-05-16T12:19:11;11.43;;;3.33;;
28166;SDS011;15455;53.376;-6.262;2023-05-16T12:21:58;13.85;;;2.45;;
28166;SDS011;15455;53.376;-6.262;2023-05-16T12:24:44;10.35;;;3.10;;
28166;SDS011;15455;53.376;-6.262;2023-05-16T12:27:29;12.73;;;3.45;;
28166;SDS011;15455;53.376;-6.262;2023-05-16T12:30:17;3.63;;;1.90;;
28166;SDS011;15455;53.376;-6.262;2023-05-16T12:33:07;8.70;;;2.60;;
28166;SDS011;15455;53.376;-6.262;2023-05-16T12:35:57;6.88;;;2.95;;
28166;SDS011;15455;53.376;-6.262;2023-05-16T12:38:44;12.07;;;3.00;;
28166;SDS011;15455;53.376;-6.262;2023-05-16T12:41:31;13.82;;;3.08;;
28166;SDS011;15455;53.376;-6.262;2023-05-16T12:44:17;12.27;;;2.88;;
28166;SDS011;15455;53.376;-6.262;2023-05-16T12:47:09;9.73;;;2.80;;
28166;SDS011;15455;53.376;-6.262;2023-05-16T12:49:56;7.10;;;2.33;;
28166;SDS011;15455;53.376;-6.262;2023-05-16T12:52:54;9.40;;;3.03;;
28166;SDS011;15455;53.376;-6.262;2023-05-16T12:55:44;10.48;;;2.95;;
28166;SDS011;15455;53.376;-6.262;2023-05-16T12:58:30;5.20;;;2.42;;
28166;SDS011;15455;53.376;-6.262;2023-05-16T13:01:15;10.45;;;2.90;;
28166;SDS011;15455;53.376;-6.262;2023-05-16T13:04:01;6.47;;;2.80;;
28166;SDS011;15455;53.376;-6.262;2023-05-16T13:06:48;10.25;;;3.03;;
28166;SDS011;15455;53.376;-6.262;2023-05-16T13:09:37;11.75;;;2.78;;
28166;SDS011;15455;53.376;-6.262;2023-05-16T13:12:22;9.32;;;3.15;;
28166;SDS011;15455;53.376;-6.262;2023-05-16T13:15:11;9.50;;;2.80;;
28166;SDS011;15455;53.376;-6.262;2023-05-16T13:17:56;10.40;;;2.65;;
28166;SDS011;15455;53.376;-6.262;2023-05-16T13:20:42;11.52;;;2.72;;
28166;SDS011;15455;53.376;-6.262;2023-05-16T13:23:28;12.15;;;3.17;;
28166;SDS011;15455;53.376;-6.262;2023-05-16T13:26:14;8.02;;;2.90;;
28166;SDS011;15455;53.376;-6.262;2023-05-16T13:29:00;6.78;;;2.50;;
28166;SDS011;15455;53.376;-6.262;2023-05-16T13:31:46;7.78;;;2.72;;
28166;SDS011;15455;53.376;-6.262;2023-05-16T13:34:32;9.60;;;2.90;;
28166;SDS011;15455;53.376;-6.262;2023-05-16T13:37:18;7.40;;;2.92;;
28166;SDS011;15455;53.376;-6.262;2023-05-16T13:40:06;9.57;;;2.58;;
28166;SDS011;15455;53.376;-6.262;2023-05-16T13:42:55;7.32;;;2.85;;
28166;SDS011;15455;53.376;-6.262;2023-05-16T13:45:41;7.90;;;2.88;;
28166;SDS011;15455;53.376;-6.262;2023-05-16T13:48:28;15.25;;;3.00;;
28166;SDS011;15455;53.376;-6.262;2023-05-16T13:51:14;10.07;;;2.40;;
28166;SDS011;15455;53.376;-6.262;2023-05-16T13:53:59;6.07;;;2.80;;
28166;SDS011;15455;53.376;-6.262;2023-05-16T13:56:44;11.55;;;2.45;;
28166;SDS011;15455;53.376;-6.262;2023-05-16T13:59:30;8.27;;;2.20;;
28166;SDS011;15455;53.376;-6.262;2023-05-16T14:02:35;9.38;;;2.90;;
28166;SDS011;15455;53.376;-6.262;2023-05-16T14:05:21;7.30;;;2.60;;
28166;SDS011;15455;53.376;-6.262;2023-05-16T14:08:07;7.15;;;3.05;;
28166;SDS011;15455;53.376;-6.262;2023-05-16T14:10:52;12.95;;;3.42;;
28166;SDS011;15455;53.376;-6.262;2023-05-16T14:13:38;10.80;;;2.75;;
28166;SDS011;15455;53.376;-6.262;2023-05-16T14:16:26;6.55;;;2.28;;
28166;SDS011;15455;53.376;-6.262;2023-05-16T14:19:13;12.32;;;3.00;;
28166;SDS011;15455;53.376;-6.262;2023-05-16T14:22:01;7.53;;;2.78;;
28166;SDS011;15455;53.376;-6.262;2023-05-16T14:24:47;7.68;;;3.05;;
28166;SDS011;15455;53.376;-6.262;2023-05-16T14:27:32;6.63;;;2.17;;
28166;SDS011;15455;53.376;-6.262;2023-05-16T14:30:17;13.32;;;2.90;;
28166;SDS011;15455;53.376;-6.262;2023-05-16T14:33:03;12.68;;;2.95;;
28166;SDS011;15455;53.376;-6.262;2023-05-16T14:35:50;9.55;;;3.13;;
28166;SDS011;15455;53.376;-6.262;2023-05-16T14:38:36;9.32;;;2.70;;
28166;SDS011;15455;53.376;-6.262;2023-05-16T14:41:22;13.32;;;3.05;;
28166;SDS011;15455;53.376;-6.262;2023-05-16T14:44:07;8.63;;;2.58;;
28166;SDS011;15455;53.376;-6.262;2023-05-16T14:46:53;5.82;;;2.72;;
28166;SDS011;15455;53.376;-6.262;2023-05-16T14:49:39;8.48;;;2.53;;
28166;SDS011;15455;53.376;-6.262;2023-05-16T14:52:25;15.13;;;2.72;;
28166;SDS011;15455;53.376;-6.262;2023-05-16T14:55:10;8.27;;;2.72;;
28166;SDS011;15455;53.376;-6.262;2023-05-16T14:57:56;9.93;;;3.05;;
28166;SDS011;15455;53.376;-6.262;2023-05-16T15:00:44;7.57;;;2.47;;
28166;SDS011;15455;53.376;-6.262;2023-05-16T15:03:30;7.78;;;2.50;;
28166;SDS011;15455;53.376;-6.262;2023-05-16T15:06:34;5.07;;;2.25;;
28166;SDS011;15455;53.376;-6.262;2023-05-16T15:09:20;5.55;;;2.30;;
28166;SDS011;15455;53.376;-6.262;2023-05-16T15:12:06;9.20;;;2.35;;
28166;SDS011;15455;53.376;-6.262;2023-05-16T15:14:52;4.45;;;2.05;;
28166;SDS011;15455;53.376;-6.262;2023-05-16T15:17:38;4.43;;;2.05;;
28166;SDS011;15455;53.376;-6.262;2023-05-16T15:20:26;8.88;;;2.50;;
28166;SDS011;15455;53.376;-6.262;2023-05-16T15:23:12;12.13;;;2.60;;
28166;SDS011;15455;53.376;-6.262;2023-05-16T15:25:57;10.55;;;3.00;;
28166;SDS011;15455;53.376;-6.262;2023-05-16T15:28:43;6.75;;;2.58;;
28166;SDS011;15455;53.376;-6.262;2023-05-16T15:31:28;5.70;;;2.08;;
28166;SDS011;15455;53.376;-6.262;2023-05-16T15:34:16;13.68;;;2.60;;
28166;SDS011;15455;53.376;-6.262;2023-05-16T15:37:02;10.15;;;2.42;;
28166;SDS011;15455;53.376;-6.262;2023-05-16T15:39:47;12.40;;;2.72;;
28166;SDS011;15455;53.376;-6.262;2023-05-16T15:42:33;18.48;;;2.83;;
28166;SDS011;15455;53.376;-6.262;2023-05-16T15:45:19;8.18;;;2.53;;
28166;SDS011;15455;53.376;-6.262;2023-05-16T15:48:05;8.40;;;2.92;;
28166;SDS011;15455;53.376;-6.262;2023-05-16T15:50:51;6.65;;;2.22;;
28166;SDS011;15455;53.376;-6.262;2023-05-16T15:53:37;11.73;;;2.50;;
28166;SDS011;15455;53.376;-6.262;2023-05-16T15:56:22;11.57;;;2.17;;
28166;SDS011;15455;53.376;-6.262;2023-05-16T15:59:08;7.88;;;2.40;;
28166;SDS011;15455;53.376;-6.262;2023-05-16T16:01:53;7.38;;;2.17;;
28166;SDS011;15455;53.376;-6.262;2023-05-16T16:04:39;11.25;;;2.55;;
28166;SDS011;15455;53.376;-6.262;2023-05-16T16:07:25;5.38;;;2.45;;
28166;SDS011;15455;53.376;-6.262;2023-05-16T16:10:10;7.30;;;2.55;;
28166;SDS011;15455;53.376;-6.262;2023-05-16T16:12:57;7.57;;;1.85;;
28166;SDS011;15455;53.376;-6.262;2023-05-16T16:15:44;6.90;;;2.20;;
28166;SDS011;15455;53.376;-6.262;2023-05-16T16:18:29;9.55;;;3.17;;
28166;SDS011;15455;53.376;-6.262;2023-05-16T16:21:15;11.77;;;2.97;;
28166;SDS011;15455;53.376;-6.262;2023-05-16T16:24:00;11.30;;;2.28;;
28166;SDS011;15455;53.376;-6.262;2023-05-16T16:26:46;9.90;;;2.72;;
28166;SDS011;15455;53.376;-6.262;2023-05-16T16:29:31;8.27;;;2.40;;
28166;SDS011;15455;53.376;-6.262;2023-05-16T16:32:16;9.45;;;2.45;;
28166;SDS011;15455;53.376;-6.262;2023-05-16T16:35:02;8.73;;;2.53;;
28166;SDS011;15455;53.376;-6.262;2023-05-16T16:37:49;10.10;;;2.00;;
28166;SDS011;15455;53.376;-6.262;2023-05-16T16:40:50;4.77;;;1.80;;
28166;SDS011;15455;53.376;-6.262;2023-05-16T16:43:36;8.15;;;1.88;;